x

La Perouse Bank (46206) Wave Buoy

3:00am - Sat 26th Jul 2014 All times are PDT. -7 hours from GMT.

  • Sig Wave height 2.3ft
  • Peak Period 6s
  • Wind
    7mph
  • Sea Temp 55°f
  • 空気 Temp 54°f
  • Sea Pressure 1020.9mb
  • La Perouse Bank
  • La Perouse Bank

More Historic Weather Station data

Upgrade to MSW Pro to gain access to the past 30 days of data for over 8000 Wavebouys and Weather Stations around the globe.

Join Pro

Comparision Forecast

View Surf forecast
   
Sat 07/26 3:00am 2.5ft 6s 7
mph
1020.9mb 55f 54f
2:00am 2.5ft 7s 4 7 mph 1020.9mb 55f 55f
1:00am 2.5ft 7s 4 7 mph 1020.7mb 55f 56f
12:00am 2ft 7s 4
mph
1020.8mb 55f 57f
Fri 07/25 11:00pm 2ft 7s 2
mph
1021mb 55f 57f
10:00pm 2ft 6s 2
mph
1021mb 55f 58f
9:00pm 2ft 6s 2 4 mph 1020.9mb 57f 57f
8:00pm 2ft 7s 2
mph
1020.9mb 56f 58f
7:00pm 2.5ft 6s 2 4 mph 1021.2mb 56f 58f
6:00pm 2.5ft 6s 2
mph
1021.5mb 56f 59f
5:00pm 2.5ft 6s 4
mph
1021.8mb 56f 58f
4:00pm 2.5ft 6s 4 7 mph 1022.1mb 56f 58f
3:00pm 2.5ft 6s 4
mph
1022.1mb 55f 57f
2:00pm 2.5ft 7s 4 7 mph 1022.1mb 56f 57f
1:00pm 2.5ft 7s 7
mph
1022.1mb 55f 57f
12:00pm 2.5ft 7s 7 9 mph 1022.1mb 55f 56f
11:00am 2.5ft 7s 7
mph
1022mb 55f 56f
10:00am 2.5ft 7s 7 9 mph 1021.8mb 55f 55f
9:00am 2.5ft 7s 7 9 mph 1021.8mb 55f 55f
8:00am 2.5ft 7s 7
mph
1021.8mb 55f 55f
7:00am 2.5ft 7s 7
mph
1021.9mb 55f 55f
6:00am 3ft 6s 7 9 mph 1021.8mb 55f 55f
5:00am 3ft 6s 4 7 mph 1021.9mb 55f 55f
4:00am 3ft 7s 4 7 mph 1022.1mb 54f 55f
3:00am 3ft 7s 4 7 mph 1022.3mb 54f 55f
2:00am 3ft 7s 4
mph
1022.5mb 54f 55f
1:00am 3ft 7s 4
mph
1022.8mb 54f 55f
12:00am 3.5ft 8s 2 4 mph 1023mb 54f 55f
Thu 07/24 11:00pm 3.5ft 7s 4
mph
1023.1mb 53f 55f
10:00pm 3.5ft 6s 2 4 mph 1023.3mb 54f 56f
9:00pm 4ft 7s 4
mph
1023.2mb 54f 55f
8:00pm 4.5ft 7s 4
mph
1023.2mb 54f 57f
7:00pm 4.5ft 7s 7 9 mph 1023.2mb 54f 57f
6:00pm 4.5ft 7s 7
mph
1023.5mb 54f 56f
5:00pm 5ft 7s 9
mph
1023.6mb 54f 56f
4:00pm 5ft 8s 7
mph
1023.9mb 54f 57f
3:00pm 5ft 8s 7 9 mph 1023.6mb 53f 56f
2:00pm 5ft 8s 9 11 mph 1023.5mb 53f 57f
1:00pm 5ft 8s 9
mph
1023.1mb 53f 56f
12:00pm 5ft 7s 11 13 mph 1022.5mb 53f 56f
11:00am 5ft 8s 13 16 mph 1022mb 53f 56f
10:00am 5ft 8s 16 18 mph 1021.4mb 53f 56f
9:00am 5ft 8s 16 18 mph 1020.9mb 53f 56f
8:00am 5ft 8s 16 18 mph 1020.5mb 53f 56f
7:00am 4.5ft 7s 16 20 mph 1020mb 53f 56f
6:00am 4.5ft 8s 16 20 mph 1019.4mb 53f 56f
5:00am 4.5ft 7s 18 22 mph 1018.6mb 55f 56f
4:00am 5ft 6s 13 18 mph 1018.4mb 55f 56f
3:00am 5ft 6s 11 13 mph 1018.1mb 56f 56f
2:00am 5ft 6s 7 9 mph 1018mb 57f 56f
1:00am 4.5ft 6s 4 7 mph 1018mb 57f 57f
12:00am 4.5ft 6s 2 4 mph 1017.8mb 57f 56f
Wed 07/23 11:00pm 4.5ft 6s 7 9 mph 1017.4mb 57f 56f
10:00pm 4.5ft 6s 7 9 mph 1017.3mb 57f 56f
9:00pm 4.5ft 6s 9 11 mph 1016.6mb 57f 56f
8:00pm 4.5ft 6s 11 13 mph 1016.1mb 56f 55f
7:00pm 4.5ft 8s 11
mph
1015.9mb 55f 55f
6:00pm 4.5ft 6s 11 13 mph 1015.9mb 55f 55f
5:00pm 5ft 6s 16 18 mph 1015.8mb 55f 55f
4:00pm 5ft 6s 16 20 mph 1015.4mb 55f 56f
3:00pm 5.5ft 6s 18 22 mph 1015.1mb 55f 56f
2:00pm 5ft 6s 18 22 mph 1014.7mb 55f 56f
1:00pm 5ft 6s 20 22 mph 1014.3mb 54f 56f
12:00pm 4ft 9s 22 27 mph 1013.7mb 54f 56f
11:00am 4ft 9s 22 27 mph 1013.3mb 53f 55f
10:00am 4ft 8s 22 27 mph 1013.4mb 53f 55f
9:00am 3.5ft 9s 20 25 mph 1013.4mb 55f 55f
8:00am 3.5ft 9s 18 22 mph 1013.6mb 55f 56f
7:00am 3.5ft 8s 13 16 mph 1013.9mb 56f 56f
6:00am 4ft 9s 9 11 mph 1014mb 56f 57f
5:00am 4ft 9s 7 9 mph 1014.3mb 56f 57f
4:00am 3.5ft 9s 2 4 mph 1014.8mb 57f 57f
3:00am 4ft 10s 7
mph
1014.8mb 58f 58f
2:00am 3.5ft 10s 9 11 mph 1015mb 59f 58f
1:00am 4ft 10s 11
mph
1015.8mb 59f 58f
12:00am 3.5ft 8s 7 11 mph 1016.5mb 59f 58f
Tue 07/22 11:00pm 4ft 10s 4 7 mph 1016.7mb 59f 58f
10:00pm 3.5ft 8s 7 9 mph 1016.8mb 59f 58f
9:00pm 3.5ft 8s 2 4 mph 1017.2mb 59f 58f
8:00pm 4ft 8s 4 7 mph 1017.2mb 59f 58f
7:00pm 3.5ft 8s 4 7 mph 1017.4mb 58f 57f
6:00pm 4ft 9s 7
mph
1017.7mb 58f 57f
5:00pm 3.5ft 8s 7 9 mph 1018.1mb 58f 58f
4:00pm 3.5ft 8s 7 9 mph 1018.5mb 57f 57f
3:00pm 3.5ft 10s 9 11 mph 1018.9mb 57f 57f
2:00pm 3.5ft 11s 9 11 mph 1018.9mb 57f 57f
1:00pm 3.5ft 11s 13 16 mph 1018.5mb 56f 56f
12:00pm 3.5ft 10s 13 18 mph 1018.3mb 56f 56f